Strona główna
METAR-TAF:

METAR-TAF

Lotnisko :

Port lotniczy Gran Canaria

Gran Canaria, Hiszpania

Szerokość geograficzna: 27-56N, Długość geograficzna: 015-23W, wysokość: 23 m

Aktualna obserwacja pogody

Raport powstał 48 minut temu, godzina 05:30 UTC
Wiatr 1 kt z kierunków zmiennych
Temperatura 16°C
Wilgotność 94%
Ciśnienie 1023 hPa
Widzialność 10 km lub więcej
Mało chmury na wysokości 1000 ft

METAR: GCLP 100530Z VRB01KT 9999 FEW010 16/15 Q1023 NOSIG

czas: 06:18 (06:18 UTC)

Prognoza

Raport powstał 4 godziny i 18 minut temu, godzina 02:00 UTC
Prognoza ważna od 10 godzina 03 UTC do 11 godzina 03 UTC
Wiatr 5 kt od północno-północny zachód
Widzialność 10 km lub więcej
Mało chmury na wysokości 1500 ft

TAF: GCLP 100200Z 1003/1103 33005KT 9999 FEW015 TX23/1013Z TN16/1006Z

Obserwacja i prognoza pogody dla ponad 4000 lotnisk (raport METAR i TAF).

Dostępne stacje oznaczono żółtymi i czerwonymi punktami na mapie.

Najedź kursorem aby zobaczyć nazwę stacji.

Kliknij aby zobaczyć obserwacje i prognozy pogody.

Aby zmienić mapę: kliknij na zielony przycisk z czarnym krzyżykiem, aby powiększyć; na zielony przycisk z myślnikiem, aby pomniejszyć; na zielone strzałki, aby przejść do map sąsiednich.


METAR-TAF: